KSUU

Travis AFB Airport

Fairfield, California, USA
TAF KSUU 251103Z 2511/2617 22012KT 9999 SKC QNH2982INS BECMG 2517/2518 32009KT 9999 SKC QNH2983INS TEMPO 2518/2522 32012G18KT BECMG 2600/2601 23012KT 9999 SKC QNH2984INS TX34/2522Z TN11/2512Z
Issued Valid From Valid To
Sep-25 @ 11:03 UTC
(6 hours ago)
Sep-25 @ 11:00 UTC
(6 hours ago)
Sep-26 @ 17:00 UTC
(in 24 hours)
Expired Click to View Sep-25 @ 11:00 to Sep-25 @ 17:00
TAF KSUU 251103Z 2511/2617 22012KT 9999 SKC QNH2982INS
Wind Visibility Clouds Readings
220° at 12 knots Greater than 6 miles
  • Clear skies
Altimeter 29.82" Hg
Pressure 1010 hPa
Becoming Sep-25 @ 17:00 to Sep-26 @ 00:00
BECMG 2517/2518 32009KT 9999 SKC QNH2983INS
Wind Visibility Clouds Readings
320° at 9 knots Greater than 6 miles
  • Clear skies
Altimeter 29.82" Hg
Pressure 1010 hPa
Temporary Sep-25 @ 18:00 to Sep-25 @ 22:00
TEMPO 2518/2522 32012G18KT
Wind
320° at 12 knots
 Gusting to 18 knots
Becoming Sep-26 @ 00:00 to Sep-26 @ 17:00
BECMG 2600/2601 23012KT 9999 SKC QNH2984INS TX34/2522Z TN11/2512Z
Wind Visibility Clouds Readings
230° at 12 knots Greater than 6 miles
  • Clear skies
Altimeter 29.85" Hg
Pressure 1011 hPa
TAF KSUU 251103Z 2511/2617 22012KT 9999 SKC QNH2982INS BECMG 2517/2518 32009KT 9999 SKC QNH2983INS TEMPO 2518/2522 32012G18KT BECMG 2600/2601 23012KT 9999 SKC QNH2984INS TX34/2522Z TN11/2512Z
Issued Sep-25 @ 11:03 UTC
(6 hours ago)
Valid From Sep-25 @ 11:00 UTC
(6 hours ago)
Valid To Sep-26 @ 17:00 UTC
(in 24 hours)
Sep-25 @ 11:00 - Sep-25 @ 17:00
Wind Visibility
220° at 12 knots Greater than 6 miles
Clouds
  • Clear skies
Becoming Sep-25 @ 17:00 - Sep-26 @ 00:00
Wind Visibility
320° at 9 knots Greater than 6 miles
Clouds
  • Clear skies
Temporary Sep-25 @ 18:00 - Sep-25 @ 22:00
Wind
320° at 12 knots
 Gusting to 18 knots
Becoming Sep-26 @ 00:00 - Sep-26 @ 17:00
Wind Visibility
230° at 12 knots Greater than 6 miles
Clouds
  • Clear skies